Time;durP1;ratioP1;P1;durP2;ratioP2;P2;SDS_P1;SDS_P2;PMS_P1;PMS_P2;Temp;Humidity;BMP_temperature;BMP_pressure;BME280_temperature;BME280_humidity;BME280_pressure;Samples;Min_cycle;Max_cycle;Signal;HPM_P1;HPM_P2
2022/02/16 00:01:50;;;;;;;6.10;3.45;;;;;;;;;;5033732;28;20033;-55
2022/02/16 00:04:17;;;;;;;6.35;3.83;;;;;;;;;;5026018;28;20087;-56
2022/02/16 00:06:43;;;;;;;8.30;4.30;;;;;;;;;;5026297;28;20025;-56
2022/02/16 00:09:09;;;;;;;6.88;3.65;;;;;;;;;;5025981;28;20041;-56
2022/02/16 00:11:35;;;;;;;6.63;3.55;;;;;;;;;;5027749;28;20077;-56
2022/02/16 00:14:01;;;;;;;4.97;2.92;;;;;;;;;;5027331;28;20366;-56
2022/02/16 00:16:28;;;;;;;6.80;3.35;;;;;;;;;;5036462;28;20675;-56
2022/02/16 00:18:54;;;;;;;5.93;3.20;;;;;;;;;;5047452;28;20578;-56
2022/02/16 00:21:20;;;;;;;4.75;3.10;;;;;;;;;;5042749;28;20049;-56
2022/02/16 00:23:46;;;;;;;8.20;3.35;;;;;;;;;;5047108;28;20029;-56
2022/02/16 00:26:12;;;;;;;5.55;2.90;;;;;;;;;;5047109;28;20506;-56
2022/02/16 00:28:38;;;;;;;3.85;2.35;;;;;;;;;;5045630;28;20028;-55
2022/02/16 00:31:05;;;;;;;4.15;2.42;;;;;;;;;;5045636;28;20081;-56
2022/02/16 00:33:31;;;;;;;5.82;2.40;;;;;;;;;;5047103;28;20029;-56
2022/02/16 00:35:57;;;;;;;3.78;2.30;;;;;;;;;;5046928;28;20573;-56
2022/02/16 00:38:23;;;;;;;6.53;2.92;;;;;;;;;;5045799;28;20496;-56
2022/02/16 00:40:49;;;;;;;5.15;2.22;;;;;;;;;;5045206;28;20781;-56
2022/02/16 00:43:15;;;;;;;4.00;2.10;;;;;;;;;;5046196;28;20048;-55
2022/02/16 00:45:41;;;;;;;3.83;2.50;;;;;;;;;;5046778;28;20396;-55
2022/02/16 00:48:07;;;;;;;5.72;2.47;;;;;;;;;;5046741;28;20592;-55
2022/02/16 00:50:33;;;;;;;4.85;2.65;;;;;;;;;;5047414;28;20051;-56
2022/02/16 00:52:59;;;;;;;4.85;2.38;;;;;;;;;;5044123;28;20033;-56
2022/02/16 00:55:26;;;;;;;7.55;2.58;;;;;;;;;;5046674;28;20404;-56
2022/02/16 00:57:52;;;;;;;6.15;2.50;;;;;;;;;;5046502;28;20083;-56
2022/02/16 01:00:18;;;;;;;4.95;2.20;;;;;;;;;;5046683;28;20480;-56
2022/02/16 01:02:44;;;;;;;7.22;3.03;;;;;;;;;;5057156;28;20408;-55
2022/02/16 01:05:10;;;;;;;4.90;2.60;;;;;;;;;;5063398;28;20035;-56
2022/02/16 01:07:36;;;;;;;4.80;2.85;;;;;;;;;;5046251;28;20519;-56
2022/02/16 01:10:03;;;;;;;3.85;2.45;;;;;;;;;;5046683;28;20033;-56
2022/02/16 01:12:29;;;;;;;5.35;2.95;;;;;;;;;;5043218;28;20136;-56
2022/02/16 01:14:56;;;;;;;4.55;2.50;;;;;;;;;;5046219;28;20044;-56
2022/02/16 01:17:22;;;;;;;4.43;2.85;;;;;;;;;;5046375;28;20025;-56
2022/02/16 01:19:49;;;;;;;5.30;2.50;;;;;;;;;;5034643;28;20025;-56
2022/02/16 01:22:15;;;;;;;4.00;2.78;;;;;;;;;;5041924;28;20439;-55
2022/02/16 01:24:41;;;;;;;5.10;2.63;;;;;;;;;;5046065;28;20057;-56
2022/02/16 01:27:07;;;;;;;3.78;2.38;;;;;;;;;;5045667;28;20456;-56
2022/02/16 01:29:33;;;;;;;3.63;2.05;;;;;;;;;;5046729;28;20025;-55
2022/02/16 01:31:59;;;;;;;4.30;2.40;;;;;;;;;;5043644;28;20483;-56
2022/02/16 01:34:25;;;;;;;3.20;2.15;;;;;;;;;;5045380;28;20064;-56
2022/02/16 01:36:53;;;;;;;2.40;1.70;;;;;;;;;;5043630;28;20028;-56
2022/02/16 01:39:19;;;;;;;5.05;2.53;;;;;;;;;;5036909;28;20040;-56
2022/02/16 01:41:45;;;;;;;2.95;1.80;;;;;;;;;;5036895;28;20658;-56
2022/02/16 01:44:11;;;;;;;2.20;1.60;;;;;;;;;;5046225;28;20021;-56
2022/02/16 01:46:55;;;;;;;2.95;1.52;;;;;;;;;;5046108;28;20024;-55
2022/02/16 01:49:21;;;;;;;3.80;2.15;;;;;;;;;;5044902;28;20029;-55
2022/02/16 01:51:48;;;;;;;4.88;2.30;;;;;;;;;;5044451;28;20469;-54
2022/02/16 01:54:14;;;;;;;4.07;2.30;;;;;;;;;;5046060;28;20360;-56
2022/02/16 01:56:43;;;;;;;4.38;2.60;;;;;;;;;;5045976;28;20028;-55
2022/02/16 01:59:10;;;;;;;5.35;2.70;;;;;;;;;;5046090;28;20017;-55
2022/02/16 02:01:37;;;;;;;3.67;2.13;;;;;;;;;;5035588;28;20508;-55
2022/02/16 02:04:03;;;;;;;4.20;2.33;;;;;;;;;;5047960;28;20025;-56
2022/02/16 02:06:29;;;;;;;5.50;2.40;;;;;;;;;;5048884;28;20029;-56
2022/02/16 02:08:55;;;;;;;4.53;2.20;;;;;;;;;;5049750;28;20063;-56
2022/02/16 02:11:22;;;;;;;5.38;2.40;;;;;;;;;;5048559;28;20078;-56
2022/02/16 02:14:17;;;;;;;4.70;2.20;;;;;;;;;;5046724;28;20021;-56
2022/02/16 02:16:43;;;;;;;2.22;1.60;;;;;;;;;;5047984;28;20041;-56
2022/02/16 02:19:10;;;;;;;2.67;1.60;;;;;;;;;;5038004;28;20029;-56
2022/02/16 02:21:36;;;;;;;2.25;1.40;;;;;;;;;;5046415;28;20024;-56
2022/02/16 02:24:03;;;;;;;2.75;1.50;;;;;;;;;;5035499;28;20741;-55
2022/02/16 02:26:29;;;;;;;3.38;1.70;;;;;;;;;;5029587;28;20056;-56
2022/02/16 02:28:56;;;;;;;2.33;1.40;;;;;;;;;;5029285;28;20797;-56
2022/02/16 02:31:37;;;;;;;2.58;1.33;;;;;;;;;;5034953;28;20025;-56
2022/02/16 02:34:04;;;;;;;1.65;1.00;;;;;;;;;;5049478;28;20103;-56
2022/02/16 02:36:30;;;;;;;3.25;1.38;;;;;;;;;;5049323;28;20074;-56
2022/02/16 02:38:56;;;;;;;1.70;1.10;;;;;;;;;;5049065;28;20044;-55
2022/02/16 02:41:24;;;;;;;1.58;1.15;;;;;;;;;;5048132;28;20494;-56
2022/02/16 02:43:50;;;;;;;1.38;1.20;;;;;;;;;;5049045;28;20112;-56
2022/02/16 02:46:17;;;;;;;3.30;1.40;;;;;;;;;;5049614;28;20037;-55
2022/02/16 02:48:43;;;;;;;1.10;0.77;;;;;;;;;;5048717;28;20024;-56
2022/02/16 02:51:10;;;;;;;1.00;0.90;;;;;;;;;;5047992;28;20033;-54
2022/02/16 02:53:38;;;;;;;1.33;0.98;;;;;;;;;;5048961;28;20036;-55
2022/02/16 02:56:04;;;;;;;0.90;0.85;;;;;;;;;;5049156;28;20025;-55
2022/02/16 02:58:30;;;;;;;1.35;0.90;;;;;;;;;;5030719;28;20033;-55
2022/02/16 03:00:58;;;;;;;1.83;1.23;;;;;;;;;;5030309;28;20079;-55
2022/02/16 03:03:24;;;;;;;1.85;1.13;;;;;;;;;;5048707;28;20067;-55
2022/02/16 03:05:50;;;;;;;1.70;1.00;;;;;;;;;;5048295;28;20037;-54
2022/02/16 03:08:16;;;;;;;2.10;1.55;;;;;;;;;;5049305;28;20533;-53
2022/02/16 03:10:42;;;;;;;1.48;1.10;;;;;;;;;;5047070;28;20404;-54
2022/02/16 03:13:19;;;;;;;1.73;1.10;;;;;;;;;;5046906;28;20484;-55
2022/02/16 03:15:48;;;;;;;2.05;1.08;;;;;;;;;;5047914;28;20013;-55
2022/02/16 03:18:15;;;;;;;1.75;1.00;;;;;;;;;;5048948;28;20108;-54
2022/02/16 03:20:41;;;;;;;1.52;1.00;;;;;;;;;;5047535;28;20055;-55
2022/02/16 03:23:07;;;;;;;2.30;1.05;;;;;;;;;;5048319;28;20040;-55
2022/02/16 03:25:33;;;;;;;2.03;1.00;;;;;;;;;;5046954;28;20032;-55
2022/02/16 03:27:59;;;;;;;1.25;0.90;;;;;;;;;;5048230;28;20120;-55
2022/02/16 03:30:25;;;;;;;1.60;1.27;;;;;;;;;;5046629;28;20502;-55
2022/02/16 03:32:52;;;;;;;1.42;1.00;;;;;;;;;;5046689;28;20025;-55
2022/02/16 03:35:18;;;;;;;1.27;1.10;;;;;;;;;;5048882;28;20100;-55
2022/02/16 03:37:44;;;;;;;1.95;1.10;;;;;;;;;;5047904;28;20100;-54
2022/02/16 03:40:10;;;;;;;2.03;1.10;;;;;;;;;;5048126;28;20581;-55
2022/02/16 03:42:36;;;;;;;1.35;0.80;;;;;;;;;;5046918;28;20045;-55
2022/02/16 03:45:02;;;;;;;1.42;1.08;;;;;;;;;;5047739;28;20029;-55
2022/02/16 03:47:28;;;;;;;2.53;1.10;;;;;;;;;;5047968;28;20033;-55
2022/02/16 03:49:54;;;;;;;1.60;1.02;;;;;;;;;;5046771;28;20424;-55
2022/02/16 03:52:20;;;;;;;2.15;1.10;;;;;;;;;;5036089;28;20037;-55
2022/02/16 03:54:48;;;;;;;1.20;0.95;;;;;;;;;;5028065;28;20393;-55
2022/02/16 03:57:14;;;;;;;1.80;1.15;;;;;;;;;;5032788;28;20021;-55
2022/02/16 03:59:40;;;;;;;1.52;0.90;;;;;;;;;;5046804;28;20017;-55
2022/02/16 04:02:06;;;;;;;1.95;0.93;;;;;;;;;;5046984;28;20035;-54
2022/02/16 04:04:32;;;;;;;1.00;0.90;;;;;;;;;;5047614;28;20021;-56
2022/02/16 04:06:58;;;;;;;1.35;0.80;;;;;;;;;;5046093;28;20037;-56
2022/02/16 04:09:25;;;;;;;1.73;0.82;;;;;;;;;;5047755;28;20071;-55
2022/02/16 04:11:51;;;;;;;1.48;0.77;;;;;;;;;;5047100;28;20029;-54
2022/02/16 04:14:17;;;;;;;0.65;0.65;;;;;;;;;;5036154;28;20036;-55
2022/02/16 04:16:43;;;;;;;1.92;1.00;;;;;;;;;;5041056;28;20606;-55
2022/02/16 04:19:09;;;;;;;1.75;0.80;;;;;;;;;;5047195;28;20059;-56
2022/02/16 04:21:35;;;;;;;0.85;0.60;;;;;;;;;;5047423;28;20032;-56
2022/02/16 04:24:01;;;;;;;0.93;0.70;;;;;;;;;;5047217;28;20108;-56
2022/02/16 04:26:27;;;;;;;1.05;0.70;;;;;;;;;;5045835;28;20074;-55
2022/02/16 04:28:53;;;;;;;1.30;0.80;;;;;;;;;;5045887;28;20039;-54
2022/02/16 04:31:19;;;;;;;1.83;0.93;;;;;;;;;;5047175;28;20451;-55
2022/02/16 04:33:45;;;;;;;1.13;0.90;;;;;;;;;;5046258;28;20029;-55
2022/02/16 04:36:11;;;;;;;1.20;0.90;;;;;;;;;;5045801;28;20044;-56
2022/02/16 04:38:38;;;;;;;1.52;1.05;;;;;;;;;;5047083;28;20471;-56
2022/02/16 04:41:04;;;;;;;1.60;1.10;;;;;;;;;;5047003;28;20467;-56
2022/02/16 04:43:30;;;;;;;1.45;0.85;;;;;;;;;;5047037;28;20435;-56
2022/02/16 04:45:56;;;;;;;0.95;0.70;;;;;;;;;;5045125;28;20036;-55
2022/02/16 04:48:22;;;;;;;1.00;0.90;;;;;;;;;;5046964;28;20059;-56
2022/02/16 04:50:48;;;;;;;1.25;1.00;;;;;;;;;;5047139;28;20453;-56
2022/02/16 04:53:14;;;;;;;1.00;0.90;;;;;;;;;;5047357;28;20027;-55
2022/02/16 04:55:40;;;;;;;1.45;1.00;;;;;;;;;;5045380;28;20550;-56
2022/02/16 04:58:07;;;;;;;3.22;0.88;;;;;;;;;;5046589;28;20037;-55
2022/02/16 05:00:33;;;;;;;1.10;0.90;;;;;;;;;;5046409;28;20385;-56
2022/02/16 05:02:59;;;;;;;1.00;0.77;;;;;;;;;;5046228;28;20025;-56
2022/02/16 05:05:25;;;;;;;1.70;0.95;;;;;;;;;;5045390;28;20479;-55
2022/02/16 05:07:51;;;;;;;1.13;1.00;;;;;;;;;;5046285;28;20523;-55
2022/02/16 05:10:17;;;;;;;2.38;1.25;;;;;;;;;;5047099;28;20040;-56
2022/02/16 05:12:43;;;;;;;1.70;1.20;;;;;;;;;;5046101;28;20423;-56
2022/02/16 05:15:09;;;;;;;1.77;1.00;;;;;;;;;;5045522;28;20037;-56
2022/02/16 05:17:35;;;;;;;1.98;1.10;;;;;;;;;;5045022;28;20044;-56
2022/02/16 05:20:01;;;;;;;2.00;1.27;;;;;;;;;;5045663;28;20025;-56
2022/02/16 05:22:27;;;;;;;2.03;1.30;;;;;;;;;;5026058;28;20714;-56
2022/02/16 05:24:53;;;;;;;2.35;1.20;;;;;;;;;;5025992;28;20033;-56
2022/02/16 05:27:20;;;;;;;2.50;1.20;;;;;;;;;;5026062;28;20543;-54
2022/02/16 05:29:46;;;;;;;1.17;1.00;;;;;;;;;;5026291;28;20037;-56
2022/02/16 05:32:12;;;;;;;1.45;1.00;;;;;;;;;;5023921;28;20555;-56
2022/02/16 05:34:38;;;;;;;2.03;0.80;;;;;;;;;;5025947;28;20033;-55
2022/02/16 05:37:04;;;;;;;1.40;0.82;;;;;;;;;;5024859;28;20435;-56
2022/02/16 05:39:30;;;;;;;1.05;0.80;;;;;;;;;;5030856;28;20021;-56
2022/02/16 05:41:56;;;;;;;1.55;0.98;;;;;;;;;;5044636;28;20444;-56
2022/02/16 05:44:22;;;;;;;0.70;0.70;;;;;;;;;;5052509;28;20039;-56
2022/02/16 05:46:48;;;;;;;0.85;0.82;;;;;;;;;;5053066;28;20413;-56
2022/02/16 05:49:14;;;;;;;1.00;0.90;;;;;;;;;;5053341;28;20473;-56
2022/02/16 05:51:41;;;;;;;1.48;0.90;;;;;;;;;;5050737;28;20107;-56
2022/02/16 05:54:07;;;;;;;1.10;0.93;;;;;;;;;;5052601;28;20036;-56
2022/02/16 05:56:33;;;;;;;1.10;0.70;;;;;;;;;;5052512;28;20017;-56
2022/02/16 05:58:59;;;;;;;0.82;0.73;;;;;;;;;;5051812;28;20071;-56
2022/02/16 06:01:25;;;;;;;1.23;0.70;;;;;;;;;;5049320;28;20025;-55
2022/02/16 06:03:51;;;;;;;1.35;0.60;;;;;;;;;;5051775;28;20581;-55
2022/02/16 06:06:18;;;;;;;2.22;0.82;;;;;;;;;;5052407;28;20373;-56
2022/02/16 06:08:44;;;;;;;0.85;0.70;;;;;;;;;;5052001;28;20044;-56
2022/02/16 06:11:11;;;;;;;0.63;0.60;;;;;;;;;;5050757;28;20025;-56
2022/02/16 06:13:38;;;;;;;1.35;0.70;;;;;;;;;;5051455;28;20033;-56
2022/02/16 06:16:05;;;;;;;1.20;0.90;;;;;;;;;;5051277;28;20053;-56
2022/02/16 06:18:31;;;;;;;0.88;0.80;;;;;;;;;;5034432;28;20045;-55
2022/02/16 06:20:57;;;;;;;1.25;0.60;;;;;;;;;;5032253;28;20029;-55
2022/02/16 06:23:23;;;;;;;0.70;0.60;;;;;;;;;;5052152;28;20055;-55
2022/02/16 06:25:49;;;;;;;0.50;0.50;;;;;;;;;;5052093;28;20025;-55
2022/02/16 06:28:15;;;;;;;1.38;0.73;;;;;;;;;;5052570;28;20078;-56
2022/02/16 06:30:41;;;;;;;1.95;1.45;;;;;;;;;;5051871;28;20027;-56
2022/02/16 06:33:07;;;;;;;2.83;1.30;;;;;;;;;;5051223;28;20037;-56
2022/02/16 06:35:34;;;;;;;2.03;1.42;;;;;;;;;;5052395;28;20021;-55
2022/02/16 06:38:00;;;;;;;2.28;1.25;;;;;;;;;;5052021;28;20493;-55
2022/02/16 06:40:27;;;;;;;2.45;1.38;;;;;;;;;;5051772;28;20148;-52
2022/02/16 06:42:56;;;;;;;2.20;1.27;;;;;;;;;;5035563;28;20044;-54
2022/02/16 06:45:22;;;;;;;2.20;1.15;;;;;;;;;;5062711;28;20613;-54
2022/02/16 06:47:48;;;;;;;1.98;1.20;;;;;;;;;;5051957;28;20547;-55
2022/02/16 06:50:15;;;;;;;1.27;1.08;;;;;;;;;;5049973;28;20029;-53
2022/02/16 06:52:41;;;;;;;1.70;1.23;;;;;;;;;;5048459;28;20488;-54
2022/02/16 06:55:07;;;;;;;1.80;1.25;;;;;;;;;;5056247;28;20458;-54
2022/02/16 06:57:34;;;;;;;2.55;1.63;;;;;;;;;;5048268;28;20033;-54
2022/02/16 07:00:00;;;;;;;2.20;1.58;;;;;;;;;;5047081;28;20388;-54
2022/02/16 07:02:26;;;;;;;2.30;1.65;;;;;;;;;;5042446;28;20475;-54
2022/02/16 07:04:52;;;;;;;2.17;1.67;;;;;;;;;;5037964;28;20029;-54
2022/02/16 07:07:18;;;;;;;3.63;1.77;;;;;;;;;;5029439;28;20069;-54
2022/02/16 07:09:44;;;;;;;1.95;1.42;;;;;;;;;;5033792;28;20029;-55
2022/02/16 07:12:10;;;;;;;1.42;1.10;;;;;;;;;;5033699;28;20415;-54
2022/02/16 07:14:37;;;;;;;1.63;1.23;;;;;;;;;;5032345;28;20032;-55
2022/02/16 07:17:03;;;;;;;1.98;1.20;;;;;;;;;;5028683;28;20029;-53
2022/02/16 07:19:29;;;;;;;2.25;1.40;;;;;;;;;;5035396;28;20044;-53
2022/02/16 07:21:57;;;;;;;1.45;1.27;;;;;;;;;;5044761;28;20946;-53
2022/02/16 07:24:23;;;;;;;1.50;1.38;;;;;;;;;;5028391;28;20026;-54
2022/02/16 07:26:50;;;;;;;2.92;1.70;;;;;;;;;;5032234;28;20571;-54
2022/02/16 07:29:16;;;;;;;2.45;2.00;;;;;;;;;;5047593;28;20029;-54
2022/02/16 07:31:42;;;;;;;3.25;2.45;;;;;;;;;;5042012;28;20040;-54
2022/02/16 07:34:08;;;;;;;2.85;2.10;;;;;;;;;;5048259;28;20570;-55
2022/02/16 07:36:34;;;;;;;3.17;2.03;;;;;;;;;;5041928;28;20488;-54
2022/02/16 07:39:01;;;;;;;2.92;2.20;;;;;;;;;;5036215;28;20112;-54
2022/02/16 07:41:28;;;;;;;3.15;2.08;;;;;;;;;;5046174;28;20082;-53
2022/02/16 07:43:54;;;;;;;3.65;2.15;;;;;;;;;;5027271;28;20033;-54
2022/02/16 07:46:21;;;;;;;3.10;2.50;;;;;;;;;;5042268;28;20063;-55
2022/02/16 07:48:47;;;;;;;3.35;2.53;;;;;;;;;;5050583;28;20115;-51
2022/02/16 07:51:13;;;;;;;4.53;3.15;;;;;;;;;;5028980;28;20695;-53
2022/02/16 07:53:40;;;;;;;2.85;2.63;;;;;;;;;;5027797;28;20866;-52
2022/02/16 07:56:06;;;;;;;5.28;3.05;;;;;;;;;;5039678;28;20033;-53
2022/02/16 07:58:32;;;;;;;3.58;2.28;;;;;;;;;;5039517;28;20483;-55
2022/02/16 08:00:58;;;;;;;3.40;2.30;;;;;;;;;;5047160;28;20498;-53
2022/02/16 08:03:26;;;;;;;4.25;2.45;;;;;;;;;;5035939;28;20396;-54
2022/02/16 08:05:52;;;;;;;3.55;2.13;;;;;;;;;;5035144;28;20036;-54
2022/02/16 08:08:19;;;;;;;2.75;1.95;;;;;;;;;;5037736;28;20475;-53
2022/02/16 08:10:49;;;;;;;2.78;1.92;;;;;;;;;;5036214;28;20511;-53
2022/02/16 08:13:16;;;;;;;2.63;1.77;;;;;;;;;;5038731;28;20626;-54
2022/02/16 08:15:42;;;;;;;2.38;1.60;;;;;;;;;;5032415;28;20433;-55
2022/02/16 08:18:08;;;;;;;2.10;1.55;;;;;;;;;;5027858;28;20655;-54
2022/02/16 08:20:34;;;;;;;3.30;1.73;;;;;;;;;;5027693;28;20033;-54
2022/02/16 08:23:00;;;;;;;2.35;1.42;;;;;;;;;;5035899;28;20025;-55
2022/02/16 08:25:26;;;;;;;3.40;1.35;;;;;;;;;;5046203;28;20527;-55
2022/02/16 08:27:53;;;;;;;2.45;1.30;;;;;;;;;;5044909;28;20033;-55
2022/02/16 08:30:19;;;;;;;2.35;1.40;;;;;;;;;;5035580;28;20053;-54
2022/02/16 08:32:48;;;;;;;1.25;1.15;;;;;;;;;;5028485;28;20057;-55
2022/02/16 08:35:15;;;;;;;1.60;1.08;;;;;;;;;;5030444;28;20217;-55
2022/02/16 08:37:41;;;;;;;2.70;1.17;;;;;;;;;;5026107;28;20021;-55
2022/02/16 08:40:08;;;;;;;3.05;1.00;;;;;;;;;;5026709;28;20440;-56
2022/02/16 08:42:34;;;;;;;1.17;0.98;;;;;;;;;;5026658;28;20030;-56
2022/02/16 08:45:00;;;;;;;1.98;0.80;;;;;;;;;;5026452;28;20618;-56
2022/02/16 08:47:26;;;;;;;1.25;0.80;;;;;;;;;;5026728;28;20060;-56
2022/02/16 08:49:52;;;;;;;1.52;0.82;;;;;;;;;;5033412;28;20033;-55
2022/02/16 08:52:18;;;;;;;1.42;0.80;;;;;;;;;;5045883;28;20029;-56
2022/02/16 08:54:44;;;;;;;1.00;0.80;;;;;;;;;;5032517;28;20047;-55
2022/02/16 08:57:10;;;;;;;0.68;0.68;;;;;;;;;;5036679;28;20525;-55
2022/02/16 08:59:36;;;;;;;1.00;0.80;;;;;;;;;;5035897;28;20428;-55
2022/02/16 09:02:02;;;;;;;0.95;0.80;;;;;;;;;;5032609;28;20028;-54
2022/02/16 09:04:29;;;;;;;0.60;0.60;;;;;;;;;;5035252;28;20119;-56
2022/02/16 09:09:40;;;;;;;;;;;;;;;;;;5035120;28;20056;-55
2022/02/16 09:12:07;;;;;;;0.75;0.70;;;;;;;;;;5031959;28;19913;-56
2022/02/16 09:14:33;;;;;;;1.10;0.88;;;;;;;;;;5034428;28;20020;-54
2022/02/16 09:16:59;;;;;;;1.02;0.60;;;;;;;;;;5032789;28;20439;-55
2022/02/16 09:19:26;;;;;;;2.38;1.10;;;;;;;;;;5035327;28;20083;-56
2022/02/16 09:21:53;;;;;;;1.88;0.70;;;;;;;;;;5035309;28;20075;-56
2022/02/16 09:24:19;;;;;;;1.15;0.70;;;;;;;;;;5033661;28;20043;-55
2022/02/16 09:26:50;;;;;;;1.05;0.65;;;;;;;;;;5034670;28;20043;-56
2022/02/16 09:29:16;;;;;;;1.25;0.70;;;;;;;;;;5035533;28;20082;-56
2022/02/16 09:31:42;;;;;;;1.45;0.60;;;;;;;;;;5035755;28;20449;-55
2022/02/16 09:34:08;;;;;;;1.15;0.60;;;;;;;;;;5031530;28;20599;-57
2022/02/16 09:36:35;;;;;;;0.68;0.52;;;;;;;;;;5035615;28;20115;-56
2022/02/16 09:39:01;;;;;;;0.77;0.60;;;;;;;;;;5034965;28;20014;-56
2022/02/16 09:41:29;;;;;;;1.13;0.60;;;;;;;;;;5035273;28;20037;-56
2022/02/16 09:43:56;;;;;;;0.85;0.60;;;;;;;;;;5030379;28;20036;-56
2022/02/16 09:46:22;;;;;;;0.77;0.60;;;;;;;;;;5035915;28;20041;-56
2022/02/16 09:48:50;;;;;;;1.05;0.70;;;;;;;;;;5035513;28;20547;-56
2022/02/16 09:51:16;;;;;;;1.05;0.80;;;;;;;;;;5036989;28;20033;-56
2022/02/16 09:53:42;;;;;;;1.58;0.80;;;;;;;;;;5030905;28;20029;-56
2022/02/16 09:56:08;;;;;;;1.95;0.98;;;;;;;;;;5034319;28;20657;-56
2022/02/16 09:58:35;;;;;;;1.42;1.23;;;;;;;;;;5034460;28;20033;-55
2022/02/16 10:01:06;;;;;;;2.45;2.00;;;;;;;;;;5034266;28;20080;-55
2022/02/16 10:03:33;;;;;;;3.65;2.80;;;;;;;;;;5031433;28;20511;-56
2022/02/16 10:05:59;;;;;;;1.75;1.60;;;;;;;;;;5031829;28;20064;-56
2022/02/16 10:08:41;;;;;;;2.20;1.67;;;;;;;;;;5039536;28;20026;-54
2022/02/16 10:11:08;;;;;;;1.75;1.40;;;;;;;;;;5036567;28;20055;-54
2022/02/16 10:13:35;;;;;;;1.70;1.33;;;;;;;;;;5037622;28;20719;-56
2022/02/16 10:16:01;;;;;;;2.40;1.42;;;;;;;;;;5038125;28;20075;-56
2022/02/16 10:18:27;;;;;;;2.00;1.05;;;;;;;;;;5026307;28;20021;-55
2022/02/16 10:21:07;;;;;;;1.38;1.10;;;;;;;;;;5037693;28;20026;-56
2022/02/16 10:23:44;;;;;;;1.30;0.90;;;;;;;;;;5026800;28;20032;-56
2022/02/16 10:26:11;;;;;;;0.85;0.82;;;;;;;;;;5039229;28;20013;-56
2022/02/16 10:28:44;;;;;;;5.28;3.85;;;;;;;;;;5033700;28;20463;-56
2022/02/16 10:31:12;;;;;;;5.60;3.78;;;;;;;;;;5032179;28;20017;-55
2022/02/16 10:33:42;;;;;;;2.25;2.05;;;;;;;;;;5048802;28;20040;-56
2022/02/16 10:36:15;;;;;;;3.65;2.13;;;;;;;;;;5043803;28;20093;-56
2022/02/16 10:39:02;;;;;;;2.92;1.40;;;;;;;;;;5045212;28;20074;-55
2022/02/16 10:41:30;;;;;;;1.83;1.30;;;;;;;;;;5044600;28;20170;-56
2022/02/16 10:43:57;;;;;;;1.70;1.20;;;;;;;;;;5052074;28;20033;-56
2022/02/16 10:46:27;;;;;;;3.97;2.50;;;;;;;;;;5049947;28;20439;-56
2022/02/16 10:49:09;;;;;;;3.42;2.55;;;;;;;;;;5038426;28;20392;-56
2022/02/16 10:51:36;;;;;;;3.00;2.00;;;;;;;;;;5029920;28;20072;-56
2022/02/16 10:54:14;;;;;;;1.60;1.30;;;;;;;;;;5029860;28;20052;-56
2022/02/16 10:56:44;;;;;;;2.20;1.27;;;;;;;;;;5029718;28;20025;-56
2022/02/16 10:59:10;;;;;;;1.05;0.98;;;;;;;;;;5035867;28;20054;-57
2022/02/16 11:01:38;;;;;;;1.63;1.10;;;;;;;;;;5044475;28;20032;-57
2022/02/16 11:04:05;;;;;;;1.30;0.90;;;;;;;;;;5037585;28;20108;-57
2022/02/16 11:06:32;;;;;;;1.77;0.90;;;;;;;;;;5035905;28;20041;-56
2022/02/16 11:08:59;;;;;;;1.25;0.90;;;;;;;;;;5039506;28;20583;-56
2022/02/16 11:11:27;;;;;;;1.63;1.00;;;;;;;;;;5052245;28;20032;-57
2022/02/16 11:13:54;;;;;;;2.17;1.00;;;;;;;;;;5055987;28;20055;-56
2022/02/16 11:16:21;;;;;;;0.98;0.80;;;;;;;;;;5047966;28;20404;-55
2022/02/16 11:18:51;;;;;;;1.25;1.08;;;;;;;;;;5032254;28;20343;-55
2022/02/16 11:21:20;;;;;;;2.60;1.02;;;;;;;;;;5035248;28;20037;-56
2022/02/16 11:23:50;;;;;;;0.70;0.70;;;;;;;;;;5031657;28;20034;-56
2022/02/16 11:26:37;;;;;;;1.20;0.80;;;;;;;;;;5028684;28;20500;-56
2022/02/16 11:29:26;;;;;;;1.55;0.75;;;;;;;;;;5029215;28;20039;-56
2022/02/16 11:31:53;;;;;;;1.02;0.80;;;;;;;;;;5047047;28;20075;-56
2022/02/16 11:34:20;;;;;;;1.25;0.70;;;;;;;;;;5047931;28;20025;-56
2022/02/16 11:36:52;;;;;;;1.98;1.10;;;;;;;;;;5047005;28;20411;-56
2022/02/16 11:39:36;;;;;;;2.67;1.70;;;;;;;;;;5046506;28;20545;-56
2022/02/16 11:42:02;;;;;;;4.18;2.78;;;;;;;;;;5047633;28;20497;-57
2022/02/16 11:44:48;;;;;;;5.22;3.30;;;;;;;;;;5029686;28;20030;-56
2022/02/16 11:47:34;;;;;;;6.00;3.80;;;;;;;;;;5028094;28;20044;-56
2022/02/16 11:50:02;;;;;;;5.22;3.83;;;;;;;;;;5027550;28;20067;-56
2022/02/16 11:52:37;;;;;;;5.38;3.47;;;;;;;;;;5027404;28;20036;-56
2022/02/16 11:55:03;;;;;;;4.78;2.65;;;;;;;;;;5027322;28;20021;-56
2022/02/16 11:57:46;;;;;;;3.38;2.00;;;;;;;;;;5027540;28;20082;-56
2022/02/16 12:00:13;;;;;;;3.53;1.90;;;;;;;;;;5040806;28;20032;-56
2022/02/16 12:03:05;;;;;;;2.88;1.60;;;;;;;;;;5043686;28;20052;-56
2022/02/16 12:05:51;;;;;;;2.80;1.70;;;;;;;;;;5039859;28;20020;-56
2022/02/16 12:08:25;;;;;;;2.70;1.80;;;;;;;;;;5040838;28;20090;-56
2022/02/16 12:10:53;;;;;;;2.05;1.58;;;;;;;;;;5032167;28;20032;-56
2022/02/16 12:13:40;;;;;;;3.55;1.55;;;;;;;;;;5044900;28;20025;-57
2022/02/16 12:16:07;;;;;;;6.13;3.90;;;;;;;;;;5035596;28;20393;-56
2022/02/16 12:18:34;;;;;;;3.47;2.53;;;;;;;;;;5032634;28;20029;-56
2022/02/16 12:21:01;;;;;;;2.67;2.10;;;;;;;;;;5028126;28;20083;-56
2022/02/16 12:23:28;;;;;;;2.25;1.60;;;;;;;;;;5030744;28;20025;-56
2022/02/16 12:26:05;;;;;;;3.33;1.50;;;;;;;;;;5030248;28;20075;-56
2022/02/16 12:28:31;;;;;;;2.97;1.70;;;;;;;;;;5036712;28;20121;-56
2022/02/16 12:30:57;;;;;;;2.72;1.90;;;;;;;;;;5033581;28;20073;-56
2022/02/16 12:33:24;;;;;;;1.98;1.50;;;;;;;;;;5031890;28;20037;-56
2022/02/16 12:35:50;;;;;;;2.78;1.48;;;;;;;;;;5044627;28;20373;-56
2022/02/16 12:38:26;;;;;;;1.83;1.30;;;;;;;;;;5042835;28;20035;-56
2022/02/16 12:40:52;;;;;;;1.95;1.30;;;;;;;;;;5040128;28;20025;-56
2022/02/16 12:43:19;;;;;;;2.17;1.20;;;;;;;;;;5046826;28;20043;-56
2022/02/16 12:45:49;;;;;;;2.80;1.80;;;;;;;;;;5042972;28;20025;-56
2022/02/16 12:48:16;;;;;;;1.58;1.30;;;;;;;;;;5029502;28;20506;-57
2022/02/16 12:50:43;;;;;;;1.77;1.30;;;;;;;;;;5038844;28;20021;-57
2022/02/16 12:53:10;;;;;;;1.77;1.23;;;;;;;;;;5027532;28;20512;-56
2022/02/16 12:55:43;;;;;;;1.50;1.00;;;;;;;;;;5039231;28;20025;-56
2022/02/16 12:58:09;;;;;;;1.85;1.25;;;;;;;;;;5042861;28;20025;-56
2022/02/16 13:00:47;;;;;;;2.65;1.38;;;;;;;;;;5027381;28;20796;-56
2022/02/16 13:03:16;;;;;;;1.20;1.10;;;;;;;;;;5026698;28;20036;-56
2022/02/16 13:05:43;;;;;;;2.20;1.35;;;;;;;;;;5030153;28;20485;-56
2022/02/16 13:08:11;;;;;;;1.38;1.05;;;;;;;;;;5047382;28;20072;-57
2022/02/16 13:10:37;;;;;;;1.17;1.08;;;;;;;;;;5041095;28;20615;-58
2022/02/16 13:13:17;;;;;;;1.08;0.93;;;;;;;;;;5035492;28;20029;-57
2022/02/16 13:15:45;;;;;;;1.10;1.00;;;;;;;;;;5046906;28;20162;-57
2022/02/16 13:18:12;;;;;;;1.10;0.98;;;;;;;;;;5029093;28;20025;-57
2022/02/16 13:20:39;;;;;;;1.05;0.95;;;;;;;;;;5035807;28;20044;-57
2022/02/16 13:23:07;;;;;;;1.00;0.80;;;;;;;;;;5046547;28;20035;-58
2022/02/16 13:25:33;;;;;;;1.27;1.08;;;;;;;;;;5040436;28;20022;-58
2022/02/16 13:28:00;;;;;;;2.13;1.40;;;;;;;;;;5039212;28;20036;-58
2022/02/16 13:30:26;;;;;;;0.75;0.75;;;;;;;;;;5030546;28;20033;-58
2022/02/16 13:32:53;;;;;;;1.27;0.82;;;;;;;;;;5035442;28;20128;-58
2022/02/16 13:35:24;;;;;;;1.33;0.70;;;;;;;;;;5048349;28;20480;-58
2022/02/16 13:38:01;;;;;;;1.23;1.00;;;;;;;;;;5042000;28;20115;-57
2022/02/16 13:40:29;;;;;;;1.00;0.80;;;;;;;;;;5042412;28;20029;-57
2022/02/16 13:42:56;;;;;;;1.15;0.88;;;;;;;;;;5044195;28;20033;-57
2022/02/16 13:45:32;;;;;;;1.55;1.30;;;;;;;;;;5039815;28;20028;-57
2022/02/16 13:47:58;;;;;;;3.88;2.30;;;;;;;;;;5039031;28;20084;-57
2022/02/16 13:50:29;;;;;;;3.08;1.80;;;;;;;;;;5033340;28;20492;-57
2022/02/16 13:52:55;;;;;;;6.40;2.72;;;;;;;;;;5041904;28;20040;-56
2022/02/16 13:55:21;;;;;;;2.95;1.98;;;;;;;;;;5029656;28;20029;-56
2022/02/16 13:57:47;;;;;;;2.55;1.80;;;;;;;;;;5034243;28;20150;-57
2022/02/16 14:00:19;;;;;;;1.92;1.20;;;;;;;;;;5042652;28;20127;-57
2022/02/16 14:03:03;;;;;;;1.70;1.20;;;;;;;;;;5031049;28;20040;-57
2022/02/16 14:05:29;;;;;;;1.40;0.90;;;;;;;;;;5030755;28;20061;-57
2022/02/16 14:07:55;;;;;;;1.40;1.00;;;;;;;;;;5039103;28;20821;-57
2022/02/16 14:10:21;;;;;;;1.50;1.08;;;;;;;;;;5047434;28;20029;-57
2022/02/16 14:12:47;;;;;;;2.00;1.20;;;;;;;;;;5039186;28;20045;-57
2022/02/16 14:15:13;;;;;;;1.48;0.95;;;;;;;;;;5034253;28;20022;-57
2022/02/16 14:17:39;;;;;;;0.95;0.75;;;;;;;;;;5034897;28;20126;-57
2022/02/16 14:20:06;;;;;;;1.25;0.90;;;;;;;;;;5043105;28;20040;-57
2022/02/16 14:22:32;;;;;;;0.70;0.70;;;;;;;;;;5031409;28;20064;-57
2022/02/16 14:24:59;;;;;;;1.23;0.70;;;;;;;;;;5030817;28;20483;-57
2022/02/16 14:27:25;;;;;;;0.88;0.70;;;;;;;;;;5048475;28;20041;-57
2022/02/16 14:29:52;;;;;;;0.75;0.60;;;;;;;;;;5044247;28;20492;-57
2022/02/16 14:32:18;;;;;;;0.68;0.60;;;;;;;;;;5048527;28;20071;-57
2022/02/16 14:34:45;;;;;;;0.80;0.55;;;;;;;;;;5046364;28;20048;-57
2022/02/16 14:37:12;;;;;;;0.70;0.60;;;;;;;;;;5039052;28;20029;-58
2022/02/16 14:39:38;;;;;;;0.60;0.60;;;;;;;;;;5048106;28;20068;-57
2022/02/16 14:42:05;;;;;;;0.95;0.57;;;;;;;;;;5048149;28;20041;-56
2022/02/16 14:44:31;;;;;;;0.90;0.60;;;;;;;;;;5037298;28;20079;-57
2022/02/16 14:46:57;;;;;;;1.15;0.60;;;;;;;;;;5043391;28;20040;-57
2022/02/16 14:49:24;;;;;;;0.50;0.50;;;;;;;;;;5048123;28;20029;-57